< < Back
Terminal Aerodrome Forecast


Current Version              Previous Versions:   1  2  3  4  5  6  7  8  9  

Terminal Aerodrome Forecast

099
FTUS42 KJAX 282049 AAB
TAFSSI
TAF AMD
KSSI 282049Z 2821/2918 34003KT P6SM -RA VCTS SCT025CB BKN060 OVC100
     FM282200 15010KT P6SM VCSH SCT040
     FM290300 20007KT P6SM BKN250
     FM290700 23005KT P6SM SCT250
     FM291700 19007KT P6SM FEW030 SCT250=

Latest METAR

785
SAUS70 KWBC 290000 RRG
MTRSSI
METAR KSSI 282353Z AUTO 18009G16KT 10SM CLR 29/26 A2990 RMK AO2 SLP127
60048 T02890261 10322 20256 55002


USA.gov is the U.S. government's official web portal to all federal, state and local government web resources and services.